createdAt,value
2018-05-06T00:01:13.872Z,8.67
2018-05-06T00:03:42.171Z,9.47
2018-05-06T00:06:10.594Z,9.13
2018-05-06T00:11:13.643Z,9.40
2018-05-06T00:13:42.644Z,9.23
2018-05-06T00:16:10.924Z,8.70
2018-05-06T00:18:39.279Z,13.10
2018-05-06T00:21:10.016Z,8.03
2018-05-06T00:23:39.024Z,10.53
2018-05-06T00:26:07.304Z,9.97
2018-05-06T00:28:35.589Z,8.77
2018-05-06T00:31:03.889Z,9.33
2018-05-06T00:33:32.179Z,10.53
2018-05-06T00:36:00.359Z,11.23
2018-05-06T00:38:30.307Z,12.33
2018-05-06T00:40:58.609Z,11.03
2018-05-06T00:43:26.882Z,9.20
2018-05-06T00:45:55.151Z,9.27
2018-05-06T00:48:23.462Z,9.70
2018-05-06T00:50:51.843Z,11.17
2018-05-06T00:53:20.119Z,8.73
2018-05-06T00:55:49.362Z,8.77
2018-05-06T00:58:17.697Z,8.50
2018-05-06T01:00:47.088Z,9.30
2018-05-06T01:03:15.357Z,8.57
2018-05-06T01:05:43.621Z,10.27
2018-05-06T01:08:11.913Z,12.70
2018-05-06T01:10:40.188Z,11.47
2018-05-06T01:13:08.439Z,11.23
2018-05-06T01:15:37.076Z,9.50
2018-05-06T01:18:05.320Z,10.23
2018-05-06T01:20:33.586Z,11.13
2018-05-06T01:23:01.841Z,10.93
2018-05-06T01:25:30.121Z,10.83
2018-05-06T01:27:58.363Z,9.33
2018-05-06T01:30:28.736Z,9.30
2018-05-06T01:32:57.013Z,8.97
2018-05-06T01:35:25.304Z,12.73
2018-05-06T01:37:53.672Z,9.38
2018-05-06T01:40:21.925Z,10.13
2018-05-06T01:42:50.170Z,8.30
2018-05-06T01:45:18.532Z,8.83
2018-05-06T01:47:46.895Z,11.00
2018-05-06T01:50:15.168Z,8.57
2018-05-06T01:52:43.434Z,7.20
2018-05-06T01:55:11.723Z,8.67
2018-05-06T01:57:39.999Z,7.87
2018-05-06T02:00:08.255Z,9.07
2018-05-06T02:02:36.533Z,7.93
2018-05-06T02:05:04.824Z,10.53
2018-05-06T02:07:33.104Z,8.80
2018-05-06T02:10:01.360Z,6.90
2018-05-06T02:12:30.447Z,9.90
2018-05-06T02:14:58.736Z,9.03
2018-05-06T02:17:26.990Z,13.20
2018-05-06T02:19:55.241Z,9.60
2018-05-06T02:22:24.301Z,13.70
2018-05-06T02:24:52.584Z,8.63
2018-05-06T02:27:20.961Z,10.07
2018-05-06T02:29:50.737Z,10.63
2018-05-06T02:32:19.012Z,9.00
2018-05-06T02:34:47.280Z,8.17
2018-05-06T02:37:15.599Z,8.20
2018-05-06T02:39:43.939Z,10.67
2018-05-06T02:42:12.182Z,8.37
2018-05-06T02:44:41.180Z,8.60
2018-05-06T02:47:09.485Z,6.67
2018-05-06T02:49:37.732Z,11.80
2018-05-06T02:52:06.005Z,9.97
2018-05-06T02:54:35.070Z,9.93
2018-05-06T02:57:03.332Z,11.60
2018-05-06T02:59:31.613Z,9.67
2018-05-06T03:01:59.856Z,9.53
2018-05-06T03:04:28.132Z,9.60
2018-05-06T03:06:56.412Z,8.57
2018-05-06T03:09:24.651Z,7.80
2018-05-06T03:11:53.713Z,7.07
2018-05-06T03:14:21.956Z,8.83
2018-05-06T03:16:50.233Z,11.00
2018-05-06T03:19:18.490Z,8.93
2018-05-06T03:21:48.428Z,9.27
2018-05-06T03:24:16.672Z,9.40
2018-05-06T03:26:44.972Z,10.27
2018-05-06T03:29:13.236Z,7.57
2018-05-06T03:31:42.637Z,7.90
2018-05-06T03:34:11.685Z,7.43
2018-05-06T03:36:39.948Z,8.50
2018-05-06T03:39:09.745Z,8.33
2018-05-06T03:41:38.030Z,8.20
2018-05-06T03:44:06.289Z,10.10
2018-05-06T03:46:34.528Z,10.77
2018-05-06T03:49:03.600Z,6.97
2018-05-06T03:51:31.815Z,8.60
2018-05-06T03:54:00.137Z,7.57
2018-05-06T04:21:20.994Z,6.77
2018-05-06T04:23:49.160Z,9.83
2018-05-06T04:26:17.408Z,7.90
2018-05-06T04:28:45.674Z,7.90
2018-05-06T04:31:13.913Z,7.63
2018-05-06T04:33:42.145Z,8.93
2018-05-06T04:36:10.444Z,8.17
2018-05-06T04:38:38.687Z,6.57
2018-05-06T04:41:07.021Z,8.43
2018-05-06T04:43:35.262Z,8.43
2018-05-06T04:46:03.520Z,8.30
2018-05-06T04:48:31.841Z,7.57
2018-05-06T04:51:00.140Z,8.47
2018-05-06T04:53:29.159Z,6.45
2018-05-06T04:55:57.443Z,8.77
2018-05-06T04:58:25.743Z,6.63
2018-05-06T05:00:54.032Z,4.93
2018-05-06T05:03:22.293Z,6.13
2018-05-06T05:05:50.579Z,7.33
2018-05-06T05:08:20.049Z,6.73
2018-05-06T05:10:48.289Z,7.12
2018-05-06T05:13:16.777Z,5.03
2018-05-06T05:15:46.755Z,4.60
2018-05-06T05:18:15.041Z,4.75
2018-05-06T05:20:43.297Z,4.45
2018-05-06T05:23:12.379Z,7.78
2018-05-06T05:25:41.584Z,4.05
2018-05-06T05:28:09.819Z,5.47
2018-05-06T05:30:38.861Z,4.60
2018-05-06T05:33:07.113Z,6.72
2018-05-06T05:35:35.424Z,5.07
2018-05-06T05:40:36.900Z,4.20
2018-05-06T05:43:05.137Z,4.62
2018-05-06T05:45:33.444Z,5.60
2018-05-06T05:48:01.699Z,9.05
2018-05-06T05:50:29.943Z,5.30
2018-05-06T05:52:58.268Z,6.18
2018-05-06T05:55:26.515Z,5.57
2018-05-06T05:57:55.110Z,5.10
2018-05-06T06:00:23.383Z,5.37
2018-05-06T06:02:52.393Z,5.45
2018-05-06T06:05:20.676Z,5.27
2018-05-06T06:07:48.958Z,3.45
2018-05-06T06:10:17.241Z,5.10
2018-05-06T06:12:45.548Z,4.47
2018-05-06T06:15:14.584Z,5.82
2018-05-06T06:17:42.872Z,4.97
2018-05-06T06:20:11.148Z,5.85
2018-05-06T06:22:39.435Z,6.03
2018-05-06T06:25:07.705Z,4.45
2018-05-06T06:27:36.003Z,5.72
2018-05-06T06:32:36.700Z,4.95
2018-05-06T06:35:04.979Z,5.53
2018-05-06T06:37:34.051Z,7.07
2018-05-06T06:40:03.100Z,5.35
2018-05-06T06:42:31.345Z,3.97
2018-05-06T06:44:59.670Z,4.45
2018-05-06T06:47:27.920Z,4.30
2018-05-06T06:49:56.201Z,6.30
2018-05-06T06:52:24.486Z,4.32
2018-05-06T06:54:52.752Z,5.80
2018-05-06T06:57:23.704Z,6.78
2018-05-06T06:59:52.012Z,4.97
2018-05-06T07:02:21.605Z,6.45
2018-05-06T07:04:50.648Z,4.32
2018-05-06T07:07:18.915Z,4.93
2018-05-06T07:09:47.160Z,3.60
2018-05-06T07:12:15.447Z,6.03
2018-05-06T07:14:43.713Z,4.57
2018-05-06T07:17:12.018Z,5.73
2018-05-06T07:19:40.249Z,4.72
2018-05-06T07:22:09.304Z,4.78
2018-05-06T07:24:37.575Z,5.00
2018-05-06T07:27:05.836Z,4.75
2018-05-06T07:29:34.117Z,5.53
2018-05-06T07:32:02.442Z,5.05
2018-05-06T07:34:31.525Z,5.05
2018-05-06T07:37:01.130Z,5.62
2018-05-06T07:39:29.431Z,6.93
2018-05-06T07:41:58.479Z,4.72
2018-05-06T07:44:26.760Z,6.70
2018-05-06T07:46:55.023Z,4.85
2018-05-06T07:49:23.308Z,4.68
2018-05-06T07:51:51.572Z,6.90
2018-05-06T07:54:19.822Z,5.20
2018-05-06T07:56:48.124Z,5.65
2018-05-06T07:59:16.538Z,4.80
2018-05-06T08:01:44.795Z,6.53
2018-05-06T08:04:13.086Z,8.35
2018-05-06T08:06:41.377Z,6.95
2018-05-06T08:09:11.335Z,5.85
2018-05-06T08:11:42.905Z,5.55
2018-05-06T08:14:11.219Z,5.55
2018-05-06T08:16:39.499Z,6.93
2018-05-06T08:19:07.779Z,7.93
2018-05-06T08:21:36.788Z,6.47
2018-05-06T08:24:05.834Z,6.32
2018-05-06T08:26:34.091Z,7.20
2018-05-06T08:29:02.408Z,6.22
2018-05-06T08:31:30.655Z,6.07
2018-05-06T08:34:00.123Z,5.55
2018-05-06T08:36:29.154Z,6.05
2018-05-06T08:38:59.691Z,5.38
2018-05-06T08:41:27.968Z,5.30
2018-05-06T08:43:56.225Z,6.35
2018-05-06T08:46:24.495Z,5.93
2018-05-06T08:48:52.780Z,6.95
2018-05-06T08:51:21.072Z,5.35
2018-05-06T08:53:49.329Z,4.57
2018-05-06T08:56:17.619Z,4.95
2018-05-06T08:58:49.642Z,6.68
2018-05-06T09:01:19.833Z,5.87
2018-05-06T09:03:48.075Z,5.93
2018-05-06T09:06:16.589Z,5.60
2018-05-06T09:08:45.717Z,4.72
2018-05-06T09:11:14.146Z,4.82
2018-05-06T09:13:43.833Z,4.40
2018-05-06T09:16:12.111Z,4.68
2018-05-06T09:18:40.364Z,5.07
2018-05-06T09:21:08.657Z,5.07
2018-05-06T09:23:37.832Z,4.78
2018-05-06T09:26:06.086Z,5.00
2018-05-06T09:28:35.096Z,4.65
2018-05-06T09:31:03.419Z,7.22
2018-05-06T09:33:31.682Z,3.85
2018-05-06T09:35:59.976Z,4.93
2018-05-06T09:38:28.231Z,5.20
2018-05-06T09:40:56.529Z,4.75
2018-05-06T09:43:24.815Z,3.95
2018-05-06T09:45:53.037Z,3.97
2018-05-06T09:48:21.311Z,5.18
2018-05-06T09:50:49.596Z,3.92
2018-05-06T09:53:17.843Z,4.45
2018-05-06T09:55:46.139Z,5.78
2018-05-06T09:58:14.446Z,4.82
2018-05-06T10:00:42.727Z,3.92
2018-05-06T10:03:12.256Z,4.10
2018-05-06T10:05:40.587Z,4.45
2018-05-06T10:08:08.893Z,4.90
2018-05-06T10:10:37.135Z,4.47
2018-05-06T10:13:05.429Z,4.40
2018-05-06T10:15:33.717Z,5.70
2018-05-06T10:18:01.961Z,5.55
2018-05-06T10:20:30.228Z,4.25
2018-05-06T10:22:58.527Z,3.95
2018-05-06T10:25:26.792Z,2.50
2018-05-06T10:27:55.092Z,3.35
2018-05-06T10:30:23.382Z,3.60
2018-05-06T10:32:51.687Z,3.03
2018-05-06T10:35:20.743Z,3.90
2018-05-06T10:37:48.985Z,2.10
2018-05-06T10:40:18.627Z,3.12
2018-05-06T10:42:46.925Z,4.03
2018-05-06T10:45:15.327Z,2.55
2018-05-06T10:47:43.569Z,2.53
2018-05-06T10:50:11.844Z,3.42
2018-05-06T10:52:40.116Z,3.87
2018-05-06T10:55:08.358Z,2.35
2018-05-06T10:57:36.668Z,3.03
2018-05-06T11:00:04.947Z,2.97
2018-05-06T11:02:33.214Z,2.78
2018-05-06T11:05:01.505Z,2.70
2018-05-06T11:07:29.779Z,4.60
2018-05-06T11:09:58.031Z,2.17
2018-05-06T11:12:26.295Z,3.15
2018-05-06T11:14:54.535Z,2.87
2018-05-06T11:17:23.600Z,2.75
2018-05-06T11:19:51.908Z,4.05
2018-05-06T11:22:20.965Z,3.37
2018-05-06T11:24:49.224Z,3.62
2018-05-06T11:27:17.498Z,4.00
2018-05-06T11:29:45.726Z,3.73
2018-05-06T11:32:15.652Z,2.15
2018-05-06T11:34:45.224Z,2.22
2018-05-06T11:37:13.496Z,3.85
2018-05-06T11:39:41.774Z,2.53
2018-05-06T11:42:10.084Z,5.25
2018-05-06T11:44:39.141Z,2.67
2018-05-06T11:47:07.520Z,2.25
2018-05-06T11:49:35.798Z,1.98
2018-05-06T11:52:04.885Z,2.95
2018-05-06T11:54:33.167Z,2.05
2018-05-06T11:57:01.446Z,1.83
2018-05-06T11:59:30.602Z,1.48
2018-05-06T12:01:58.824Z,3.20
2018-05-06T12:04:27.108Z,1.85
2018-05-06T12:06:56.125Z,1.50
2018-05-06T12:09:24.401Z,2.17
2018-05-06T12:11:52.714Z,4.80
2018-05-06T12:14:21.016Z,3.08
2018-05-06T12:16:49.404Z,2.20
2018-05-06T12:19:17.633Z,1.55
2018-05-06T12:21:46.038Z,2.25
2018-05-06T12:24:14.334Z,3.72
2018-05-06T12:26:42.593Z,1.85
2018-05-06T12:29:10.853Z,1.58
2018-05-06T12:31:39.146Z,2.87
2018-05-06T12:34:07.419Z,2.65
2018-05-06T12:36:35.643Z,2.10
2018-05-06T12:39:03.930Z,2.55
2018-05-06T12:41:32.201Z,2.12
2018-05-06T12:44:00.441Z,2.42
2018-05-06T12:46:28.742Z,1.95
2018-05-06T12:48:56.989Z,2.30
2018-05-06T12:51:25.337Z,2.42
2018-05-06T12:53:53.615Z,2.37
2018-05-06T12:56:21.897Z,2.07
2018-05-06T12:58:50.154Z,1.50
2018-05-06T13:01:19.567Z,1.60
2018-05-06T13:03:47.874Z,1.40
2018-05-06T13:06:17.019Z,2.70
2018-05-06T13:08:45.293Z,3.12
2018-05-06T13:11:14.661Z,3.42
2018-05-06T13:13:42.961Z,2.97
2018-05-06T13:16:11.215Z,1.60
2018-05-06T13:18:40.240Z,2.37
2018-05-06T13:21:08.585Z,5.03
2018-05-06T13:23:37.608Z,2.10
2018-05-06T13:26:05.836Z,1.90
2018-05-06T13:28:35.288Z,1.70
2018-05-06T13:31:03.539Z,3.08
2018-05-06T13:33:32.562Z,2.37
2018-05-06T13:36:00.852Z,2.87
2018-05-06T13:38:29.116Z,4.30
2018-05-06T13:40:57.386Z,3.05
2018-05-06T13:43:25.723Z,2.35
2018-05-06T13:45:53.987Z,2.55
2018-05-06T13:48:22.326Z,1.67
2018-05-06T13:50:50.602Z,1.92
2018-05-06T13:53:19.687Z,3.33
2018-05-06T13:55:48.024Z,2.47
2018-05-06T13:58:16.293Z,2.67
2018-05-06T14:00:44.549Z,2.25
2018-05-06T14:03:12.989Z,1.80
2018-05-06T14:05:41.406Z,2.03
2018-05-06T14:08:09.700Z,2.17
2018-05-06T14:10:39.476Z,1.70
2018-05-06T14:13:07.790Z,1.67
2018-05-06T14:15:36.074Z,1.98
2018-05-06T14:18:04.708Z,2.37
2018-05-06T14:20:32.956Z,1.90
2018-05-06T14:23:01.956Z,2.22
2018-05-06T14:25:30.238Z,2.22
2018-05-06T14:27:59.268Z,1.98
2018-05-06T14:30:27.561Z,2.75
2018-05-06T14:32:55.850Z,2.40
2018-05-06T14:35:24.202Z,2.12
2018-05-06T14:37:52.464Z,2.27
2018-05-06T14:40:20.729Z,2.10
2018-05-06T14:42:50.213Z,1.90
2018-05-06T14:45:19.261Z,2.20
2018-05-06T14:48:00.774Z,2.40
2018-05-06T14:50:29.052Z,1.40
2018-05-06T14:52:58.151Z,2.37
2018-05-06T14:55:26.437Z,2.90
2018-05-06T14:57:55.570Z,1.62
2018-05-06T15:00:23.837Z,2.17
2018-05-06T15:02:52.144Z,2.55
2018-05-06T15:05:20.526Z,3.17
2018-05-06T15:07:48.790Z,2.78
2018-05-06T15:10:17.092Z,1.55
2018-05-06T15:12:45.363Z,3.25
2018-05-06T15:15:14.883Z,3.28
2018-05-06T15:17:43.953Z,3.67
2018-05-06T15:20:12.206Z,1.85
2018-05-06T15:22:40.465Z,4.87
2018-05-06T15:25:08.776Z,3.45
2018-05-06T15:27:37.014Z,3.60
2018-05-06T15:30:05.276Z,2.15
2018-05-06T15:32:33.653Z,2.47
2018-05-06T15:35:01.864Z,7.45
2018-05-06T15:37:31.073Z,2.07
2018-05-06T15:39:59.336Z,2.22
2018-05-06T15:42:27.631Z,5.57
2018-05-06T15:44:55.859Z,2.33
2018-05-06T15:47:24.113Z,2.20
2018-05-06T15:49:53.173Z,4.65
2018-05-06T15:52:21.468Z,1.62
2018-05-06T15:54:49.763Z,1.40
2018-05-06T15:57:18.860Z,1.92
2018-05-06T15:59:47.923Z,2.85
2018-05-06T16:05:44.625Z,3.53
2018-05-06T16:08:12.923Z,2.85
2018-05-06T16:10:41.190Z,2.55
2018-05-06T16:13:09.477Z,4.45
2018-05-06T16:15:37.792Z,3.07
2018-05-06T16:18:06.056Z,3.17
2018-05-06T16:20:36.795Z,2.45
2018-05-06T16:23:05.053Z,1.70
2018-05-06T16:25:33.304Z,2.28
2018-05-06T16:28:01.545Z,3.08
2018-05-06T16:30:30.622Z,3.15
2018-05-06T16:32:58.905Z,3.45
2018-05-06T16:35:27.183Z,3.67
2018-05-06T16:37:55.515Z,2.15
2018-05-06T16:40:24.492Z,2.95
2018-05-06T16:42:52.756Z,2.28
2018-05-06T16:45:21.056Z,5.30
2018-05-06T16:47:49.302Z,2.12
2018-05-06T16:50:18.373Z,3.15
2018-05-06T16:52:46.697Z,2.72
2018-05-06T16:55:14.911Z,1.90
2018-05-06T16:57:44.084Z,2.83
2018-05-06T17:00:12.391Z,1.52
2018-05-06T17:02:40.659Z,2.95
2018-05-06T17:05:08.952Z,2.58
2018-05-06T17:07:37.375Z,2.58
2018-05-06T17:10:05.626Z,1.80
2018-05-06T17:12:34.689Z,2.95
2018-05-06T17:15:02.972Z,6.00
2018-05-06T17:20:15.492Z,2.40
2018-05-06T17:22:43.745Z,4.70
2018-05-06T17:25:12.063Z,2.40
2018-05-06T17:27:40.324Z,4.28
2018-05-06T17:30:08.572Z,2.87
2018-05-06T17:32:36.894Z,2.28
2018-05-06T17:35:05.160Z,2.55
2018-05-06T17:37:33.425Z,2.97
2018-05-06T17:40:01.830Z,2.37
2018-05-06T17:42:30.880Z,1.55
2018-05-06T17:44:59.181Z,3.62
2018-05-06T17:47:27.492Z,3.05
2018-05-06T17:49:56.612Z,3.78
2018-05-06T17:52:24.837Z,2.17
2018-05-06T17:54:53.126Z,5.12
2018-05-06T17:57:22.176Z,4.13
2018-05-06T17:59:50.566Z,5.50
2018-05-06T18:02:18.825Z,4.28
2018-05-06T18:04:47.105Z,6.25
2018-05-06T18:07:15.751Z,5.47
2018-05-06T18:09:44.792Z,4.55
2018-05-06T18:12:13.057Z,7.85
2018-05-06T18:14:41.369Z,5.65
2018-05-06T18:17:09.613Z,6.00
2018-05-06T18:19:38.001Z,5.75
2018-05-06T18:22:06.256Z,3.35
2018-05-06T18:24:34.590Z,5.35
2018-05-06T18:27:02.834Z,4.07
2018-05-06T18:29:31.134Z,6.12
2018-05-06T18:32:00.036Z,5.12
2018-05-06T18:34:29.446Z,4.90
2018-05-06T18:36:57.733Z,5.45
2018-05-06T18:39:26.020Z,9.17
2018-05-06T18:41:54.325Z,6.30
2018-05-06T18:44:22.598Z,4.80
2018-05-06T18:46:51.883Z,4.15
2018-05-06T18:49:20.102Z,3.20
2018-05-06T18:51:49.617Z,6.93
2018-05-06T18:54:18.702Z,6.20
2018-05-06T18:56:47.823Z,4.50
2018-05-06T18:59:16.868Z,4.03
2018-05-06T19:01:46.079Z,7.35
2018-05-06T19:04:15.497Z,4.78
2018-05-06T19:06:43.823Z,4.77
2018-05-06T19:09:12.947Z,9.45
2018-05-06T19:14:14.860Z,3.45
2018-05-06T19:16:43.956Z,5.87
2018-05-06T19:19:13.026Z,6.75
2018-05-06T19:21:41.304Z,5.05
2018-05-06T19:24:09.607Z,6.78
2018-05-06T19:26:38.740Z,5.68
2018-05-06T19:29:06.952Z,4.72
2018-05-06T19:31:36.099Z,6.15
2018-05-06T19:34:04.379Z,5.90
2018-05-06T19:36:32.699Z,5.30
2018-05-06T19:39:01.220Z,6.12
2018-05-06T19:41:29.556Z,7.75
2018-05-06T19:43:57.906Z,4.05
2018-05-06T19:46:26.163Z,6.40
2018-05-06T19:48:54.491Z,6.57
2018-05-06T19:53:55.919Z,7.70
2018-05-06T19:56:24.199Z,7.03
2018-05-06T19:58:52.479Z,4.60
2018-05-06T20:01:20.746Z,4.72
2018-05-06T20:03:49.056Z,7.12
2018-05-06T20:06:17.328Z,6.50
2018-05-06T20:08:45.713Z,7.78
2018-05-06T20:11:14.752Z,8.90
2018-05-06T20:13:45.589Z,6.18
2018-05-06T20:16:13.892Z,7.30
2018-05-06T20:18:42.199Z,7.28
2018-05-06T20:21:10.478Z,8.20
2018-05-06T20:23:38.804Z,8.63
2018-05-06T20:26:07.390Z,6.40
2018-05-06T20:28:35.713Z,5.90
2018-05-06T20:31:03.991Z,4.93
2018-05-06T20:33:32.258Z,4.68
2018-05-06T20:36:00.582Z,6.07
2018-05-06T20:38:28.970Z,5.18
2018-05-06T20:40:57.207Z,8.15
2018-05-06T20:43:26.797Z,7.37
2018-05-06T20:45:55.905Z,6.20
2018-05-06T20:48:24.926Z,6.97
2018-05-06T20:50:53.223Z,7.57
2018-05-06T20:53:21.514Z,6.93
2018-05-06T20:55:49.776Z,7.05
2018-05-06T20:58:18.050Z,5.90
2018-05-06T21:00:46.348Z,7.50
2018-05-06T21:03:14.709Z,6.30
2018-05-06T21:05:42.966Z,5.93
2018-05-06T21:08:11.269Z,8.47
2018-05-06T21:10:39.512Z,8.47
2018-05-06T21:13:07.772Z,5.40
2018-05-06T21:15:36.832Z,8.03
2018-05-06T21:18:05.122Z,5.53
2018-05-06T21:20:33.345Z,7.20
2018-05-06T21:23:01.661Z,6.60
2018-05-06T21:25:29.933Z,6.30
2018-05-06T21:27:58.267Z,7.65
2018-05-06T21:30:26.541Z,7.53
2018-05-06T21:32:54.892Z,6.30
2018-05-06T21:35:23.202Z,4.90
2018-05-06T21:37:51.457Z,6.97
2018-05-06T21:40:21.453Z,6.00
2018-05-06T21:42:49.760Z,7.00
2018-05-06T21:45:18.888Z,7.07
2018-05-06T21:47:47.171Z,6.07
2018-05-06T21:50:15.449Z,7.13
2018-05-06T21:52:43.769Z,5.07
2018-05-06T21:55:12.764Z,6.67
2018-05-06T21:57:41.845Z,6.33
2018-05-06T22:00:10.121Z,6.60
2018-05-06T22:02:38.411Z,5.93
2018-05-06T22:05:07.519Z,5.73
2018-05-06T22:07:36.591Z,9.37
2018-05-06T22:10:04.878Z,6.37
2018-05-06T22:12:33.167Z,6.47
2018-05-06T22:15:01.625Z,6.83
2018-05-06T22:17:29.965Z,7.03
2018-05-06T22:19:58.252Z,6.93
2018-05-06T22:22:26.624Z,7.77
2018-05-06T22:24:55.625Z,7.47
2018-05-06T22:27:23.943Z,5.90
2018-05-06T22:29:53.020Z,6.32
2018-05-06T22:32:21.313Z,9.80
2018-05-06T22:34:49.626Z,6.23
2018-05-06T22:37:17.897Z,7.63
2018-05-06T22:39:46.205Z,7.07
2018-05-06T22:42:14.539Z,8.43
2018-05-06T22:44:43.733Z,7.63
2018-05-06T22:47:12.019Z,6.20
2018-05-06T22:49:41.129Z,6.97
2018-05-06T22:52:09.403Z,6.70
2018-05-06T22:54:37.697Z,7.80
2018-05-06T22:57:07.204Z,6.80
2018-05-06T22:59:35.537Z,8.40
2018-05-06T23:04:37.036Z,8.38
2018-05-06T23:09:39.130Z,8.23
2018-05-06T23:12:07.552Z,8.18
2018-05-06T23:17:09.116Z,6.27
2018-05-06T23:22:09.847Z,8.10
2018-05-06T23:24:38.129Z,7.37
2018-05-06T23:27:06.411Z,8.03
2018-05-06T23:29:35.645Z,10.20
2018-05-06T23:32:03.941Z,10.00
2018-05-06T23:34:32.282Z,7.83
2018-05-06T23:37:01.368Z,9.67
2018-05-06T23:39:30.429Z,7.43
2018-05-06T23:41:58.704Z,7.20
2018-05-06T23:44:27.020Z,7.77
2018-05-06T23:46:56.988Z,8.63
2018-05-06T23:49:25.293Z,8.10
2018-05-06T23:51:53.593Z,9.37
2018-05-06T23:54:22.665Z,7.60
2018-05-06T23:56:50.920Z,7.07
2018-05-06T23:59:19.182Z,6.90
